EGFF/CWL METAR and TAF weather

Enter ICAO airport designator
Station Type Date Time Source
EGFF METAR 2019/02/21 11:50 UTC NOAA

EGFF 211150Z AUTO 18006KT 9999 NCD 12/09 Q1026


Station Type Date Time Source
EGFF Decoded METAR 2019/02/21 11:50 UTC NOAA

Cardiff-Wales Airport, United Kingdom (EGFF) 51-24N 003-21W 0M
Feb 21, 2019 - 06:50 AM EST / 2019.02.21 1150 UTC
Wind: from the S (180 degrees) at 7 MPH (6 KT):0
Visibility: greater than 7 mile(s):0
Temperature: 53 F (12 C)
Dew Point: 48 F (9 C)
Relative Humidity: 81%
Pressure (altimeter): 30.30 in. Hg (1026 hPa)
ob: EGFF 211150Z AUTO 18006KT 9999 NCD 12/09 Q1026
cycle: 12

Station Type Date Time Source
EGFF TAF 2019/02/21 12:06 UTC NOAA

TAF EGFF 211054Z 2112/2212 15006KT 9999 SCT020 PROB30
TEMPO 2119/2121 9000 BKN007
BECMG 2121/2124 8000 BKN006
TEMPO 2122/2210 4000 BR BKN004 PROB40
TEMPO 2200/2209 0300 FG BKN001
BECMG 2209/2212 09010KT 9999


Example: see airport list